Terminal Aerodrome Forecast
Issued by NWS North Platte, NE

Home | Current Version | Previous Version | Graphics & Text | Print | Product List | Glossary On
Versions: 1 2 3 4 5 6 7 8 9 10 11 12 13
000
FTUS43 KLBF 032322
TAFVTN
TAF
KVTN 032322Z 0400/0424 10010KT P6SM SCT060 BKN200
     FM040900 VRB06KT P6SM BKN200
     FM041100 VRB04KT P6SM SCT015 BKN200
     FM041400 14007KT P6SM BKN150
     FM042100 15010KT P6SM SCT080 BKN150 PROB30 0421/0424 3SM +TSRA
      OVC030CB=

USA.gov is the U.S. government's official web portal to all federal, state and local government web resources and services.